sensor_id;sensor_type;location;lat;lon;timestamp;P1;P2;P0
64697;PMS5003;51124;53.394;-6.294;2022-10-16T00:00:37;19;17;
64697;PMS5003;51124;53.394;-6.294;2022-10-16T00:03:03;16;16;
64697;PMS5003;51124;53.394;-6.294;2022-10-16T00:05:28;21;16;
64697;PMS5003;51124;53.394;-6.294;2022-10-16T00:08:02;16;15;
64697;PMS5003;51124;53.394;-6.294;2022-10-16T00:10:37;17;17;
64697;PMS5003;51124;53.394;-6.294;2022-10-16T00:13:11;16;16;
64697;PMS5003;51124;53.394;-6.294;2022-10-16T00:15:45;14;13;
64697;PMS5003;51124;53.394;-6.294;2022-10-16T00:18:20;17;14;
64697;PMS5003;51124;53.394;-6.294;2022-10-16T00:20:54;13;13;
64697;PMS5003;51124;53.394;-6.294;2022-10-16T00:23:19;15;15;
64697;PMS5003;51124;53.394;-6.294;2022-10-16T00:25:54;14;13;
64697;PMS5003;51124;53.394;-6.294;2022-10-16T00:28:29;18;16;
64697;PMS5003;51124;53.394;-6.294;2022-10-16T00:31:04;23;17;
64697;PMS5003;51124;53.394;-6.294;2022-10-16T00:33:29;16;14;
64697;PMS5003;51124;53.394;-6.294;2022-10-16T00:36:03;13;13;
64697;PMS5003;51124;53.394;-6.294;2022-10-16T00:38:38;18;17;
64697;PMS5003;51124;53.394;-6.294;2022-10-16T00:41:12;14;13;
64697;PMS5003;51124;53.394;-6.294;2022-10-16T00:43:39;13;12;
64697;PMS5003;51124;53.394;-6.294;2022-10-16T00:46:04;13;13;
64697;PMS5003;51124;53.394;-6.294;2022-10-16T00:48:33;18;17;
64697;PMS5003;51124;53.394;-6.294;2022-10-16T00:51:07;13;13;
64697;PMS5003;51124;53.394;-6.294;2022-10-16T00:53:41;15;15;
64697;PMS5003;51124;53.394;-6.294;2022-10-16T00:56:14;19;16;
64697;PMS5003;51124;53.394;-6.294;2022-10-16T00:58:49;15;12;
64697;PMS5003;51124;53.394;-6.294;2022-10-16T01:01:22;15;14;
64697;PMS5003;51124;53.394;-6.294;2022-10-16T01:03:56;16;15;
64697;PMS5003;51124;53.394;-6.294;2022-10-16T01:06:31;16;15;
64697;PMS5003;51124;53.394;-6.294;2022-10-16T01:09:00;17;17;
64697;PMS5003;51124;53.394;-6.294;2022-10-16T01:11:25;13;12;
64697;PMS5003;51124;53.394;-6.294;2022-10-16T01:13:54;16;15;
64697;PMS5003;51124;53.394;-6.294;2022-10-16T01:16:22;18;16;
64697;PMS5003;51124;53.394;-6.294;2022-10-16T01:18:52;14;13;
64697;PMS5003;51124;53.394;-6.294;2022-10-16T01:21:21;14;14;
64697;PMS5003;51124;53.394;-6.294;2022-10-16T01:23:48;12;12;
64697;PMS5003;51124;53.394;-6.294;2022-10-16T01:26:24;19;17;
64697;PMS5003;51124;53.394;-6.294;2022-10-16T01:28:49;19;16;
64697;PMS5003;51124;53.394;-6.294;2022-10-16T01:31:18;13;13;
64697;PMS5003;51124;53.394;-6.294;2022-10-16T01:33:46;17;15;
64697;PMS5003;51124;53.394;-6.294;2022-10-16T01:36:14;15;10;
64697;PMS5003;51124;53.394;-6.294;2022-10-16T01:38:41;14;14;
64697;PMS5003;51124;53.394;-6.294;2022-10-16T01:41:08;12;11;
64697;PMS5003;51124;53.394;-6.294;2022-10-16T01:43:36;18;12;
64697;PMS5003;51124;53.394;-6.294;2022-10-16T01:46:03;14;13;
64697;PMS5003;51124;53.394;-6.294;2022-10-16T01:48:38;14;13;
64697;PMS5003;51124;53.394;-6.294;2022-10-16T01:51:04;13;12;
64697;PMS5003;51124;53.394;-6.294;2022-10-16T01:53:31;12;11;
64697;PMS5003;51124;53.394;-6.294;2022-10-16T01:56:07;12;12;
64697;PMS5003;51124;53.394;-6.294;2022-10-16T01:58:34;13;13;
64697;PMS5003;51124;53.394;-6.294;2022-10-16T02:01:02;12;12;
64697;PMS5003;51124;53.394;-6.294;2022-10-16T02:03:27;15;14;
64697;PMS5003;51124;53.394;-6.294;2022-10-16T02:06:01;14;14;
64697;PMS5003;51124;53.394;-6.294;2022-10-16T02:08:35;15;15;
64697;PMS5003;51124;53.394;-6.294;2022-10-16T02:11:10;15;14;
64697;PMS5003;51124;53.394;-6.294;2022-10-16T02:13:45;14;13;
64697;PMS5003;51124;53.394;-6.294;2022-10-16T02:16:11;13;12;
64697;PMS5003;51124;53.394;-6.294;2022-10-16T02:18:45;18;13;
64697;PMS5003;51124;53.394;-6.294;2022-10-16T02:21:22;12;12;
64697;PMS5003;51124;53.394;-6.294;2022-10-16T02:23:50;12;11;
64697;PMS5003;51124;53.394;-6.294;2022-10-16T02:26:19;14;14;
64697;PMS5003;51124;53.394;-6.294;2022-10-16T02:28:52;15;13;
64697;PMS5003;51124;53.394;-6.294;2022-10-16T02:31:22;12;12;
64697;PMS5003;51124;53.394;-6.294;2022-10-16T02:33:50;13;12;
64697;PMS5003;51124;53.394;-6.294;2022-10-16T02:36:16;12;10;
64697;PMS5003;51124;53.394;-6.294;2022-10-16T02:38:50;16;13;
64697;PMS5003;51124;53.394;-6.294;2022-10-16T02:41:15;11;11;
64697;PMS5003;51124;53.394;-6.294;2022-10-16T02:43:49;12;12;
64697;PMS5003;51124;53.394;-6.294;2022-10-16T02:46:23;12;12;
64697;PMS5003;51124;53.394;-6.294;2022-10-16T02:48:58;12;10;
64697;PMS5003;51124;53.394;-6.294;2022-10-16T02:51:32;13;13;
64697;PMS5003;51124;53.394;-6.294;2022-10-16T02:54:06;11;11;
64697;PMS5003;51124;53.394;-6.294;2022-10-16T02:56:40;15;12;
64697;PMS5003;51124;53.394;-6.294;2022-10-16T02:59:15;11;11;
64697;PMS5003;51124;53.394;-6.294;2022-10-16T03:01:49;13;12;
64697;PMS5003;51124;53.394;-6.294;2022-10-16T03:04:23;9;9;
64697;PMS5003;51124;53.394;-6.294;2022-10-16T03:06:57;9;9;
64697;PMS5003;51124;53.394;-6.294;2022-10-16T03:09:32;13;11;
64697;PMS5003;51124;53.394;-6.294;2022-10-16T03:12:06;9;9;
64697;PMS5003;51124;53.394;-6.294;2022-10-16T03:14:39;11;11;
64697;PMS5003;51124;53.394;-6.294;2022-10-16T03:17:13;11;11;
64697;PMS5003;51124;53.394;-6.294;2022-10-16T03:19:46;9;9;
64697;PMS5003;51124;53.394;-6.294;2022-10-16T03:22:20;15;11;
64697;PMS5003;51124;53.394;-6.294;2022-10-16T03:24:54;10;10;
64697;PMS5003;51124;53.394;-6.294;2022-10-16T03:27:28;12;10;
64697;PMS5003;51124;53.394;-6.294;2022-10-16T03:30:02;10;10;
64697;PMS5003;51124;53.394;-6.294;2022-10-16T03:32:36;9;9;
64697;PMS5003;51124;53.394;-6.294;2022-10-16T03:35:10;10;10;
64697;PMS5003;51124;53.394;-6.294;2022-10-16T03:37:43;11;11;
64697;PMS5003;51124;53.394;-6.294;2022-10-16T03:40:17;8;7;
64697;PMS5003;51124;53.394;-6.294;2022-10-16T03:42:51;9;8;
64697;PMS5003;51124;53.394;-6.294;2022-10-16T03:45:24;10;10;
64697;PMS5003;51124;53.394;-6.294;2022-10-16T03:47:58;11;8;
64697;PMS5003;51124;53.394;-6.294;2022-10-16T03:50:32;10;9;
64697;PMS5003;51124;53.394;-6.294;2022-10-16T03:53:06;7;7;
64697;PMS5003;51124;53.394;-6.294;2022-10-16T03:55:40;11;10;
64697;PMS5003;51124;53.394;-6.294;2022-10-16T03:58:14;11;11;
64697;PMS5003;51124;53.394;-6.294;2022-10-16T04:00:49;11;11;
64697;PMS5003;51124;53.394;-6.294;2022-10-16T04:03:23;9;9;
64697;PMS5003;51124;53.394;-6.294;2022-10-16T04:05:56;10;9;
64697;PMS5003;51124;53.394;-6.294;2022-10-16T04:08:30;9;9;
64697;PMS5003;51124;53.394;-6.294;2022-10-16T04:11:04;9;9;
64697;PMS5003;51124;53.394;-6.294;2022-10-16T04:13:38;11;11;
64697;PMS5003;51124;53.394;-6.294;2022-10-16T04:16:12;10;10;
64697;PMS5003;51124;53.394;-6.294;2022-10-16T04:18:45;9;9;
64697;PMS5003;51124;53.394;-6.294;2022-10-16T04:21:19;14;12;
64697;PMS5003;51124;53.394;-6.294;2022-10-16T04:23:53;11;9;
64697;PMS5003;51124;53.394;-6.294;2022-10-16T04:26:26;9;7;
64697;PMS5003;51124;53.394;-6.294;2022-10-16T04:29:00;11;10;
64697;PMS5003;51124;53.394;-6.294;2022-10-16T04:31:33;9;9;
64697;PMS5003;51124;53.394;-6.294;2022-10-16T04:34:07;12;8;
64697;PMS5003;51124;53.394;-6.294;2022-10-16T04:36:41;6;6;
64697;PMS5003;51124;53.394;-6.294;2022-10-16T04:39:14;10;8;
64697;PMS5003;51124;53.394;-6.294;2022-10-16T04:41:48;10;10;
64697;PMS5003;51124;53.394;-6.294;2022-10-16T04:44:22;11;8;
64697;PMS5003;51124;53.394;-6.294;2022-10-16T04:46:56;9;8;
64697;PMS5003;51124;53.394;-6.294;2022-10-16T04:49:30;9;9;
64697;PMS5003;51124;53.394;-6.294;2022-10-16T04:52:03;9;8;
64697;PMS5003;51124;53.394;-6.294;2022-10-16T04:54:37;7;5;
64697;PMS5003;51124;53.394;-6.294;2022-10-16T04:57:11;8;8;
64697;PMS5003;51124;53.394;-6.294;2022-10-16T04:59:45;7;7;
64697;PMS5003;51124;53.394;-6.294;2022-10-16T05:02:18;10;8;
64697;PMS5003;51124;53.394;-6.294;2022-10-16T05:04:52;9;8;
64697;PMS5003;51124;53.394;-6.294;2022-10-16T05:07:27;7;7;
64697;PMS5003;51124;53.394;-6.294;2022-10-16T05:10:01;10;8;
64697;PMS5003;51124;53.394;-6.294;2022-10-16T05:12:35;6;6;
64697;PMS5003;51124;53.394;-6.294;2022-10-16T05:15:10;8;8;
64697;PMS5003;51124;53.394;-6.294;2022-10-16T05:17:44;9;9;
64697;PMS5003;51124;53.394;-6.294;2022-10-16T05:20:18;9;9;
64697;PMS5003;51124;53.394;-6.294;2022-10-16T05:22:52;6;6;
64697;PMS5003;51124;53.394;-6.294;2022-10-16T05:25:27;6;6;
64697;PMS5003;51124;53.394;-6.294;2022-10-16T05:28:02;5;5;
64697;PMS5003;51124;53.394;-6.294;2022-10-16T05:30:37;9;8;
64697;PMS5003;51124;53.394;-6.294;2022-10-16T05:33:11;9;8;
64697;PMS5003;51124;53.394;-6.294;2022-10-16T05:35:45;7;6;
64697;PMS5003;51124;53.394;-6.294;2022-10-16T05:38:19;9;6;
64697;PMS5003;51124;53.394;-6.294;2022-10-16T05:40:54;6;6;
64697;PMS5003;51124;53.394;-6.294;2022-10-16T05:43:28;9;8;
64697;PMS5003;51124;53.394;-6.294;2022-10-16T05:45:54;11;9;
64697;PMS5003;51124;53.394;-6.294;2022-10-16T05:48:19;10;8;
64697;PMS5003;51124;53.394;-6.294;2022-10-16T05:50:57;6;6;
64697;PMS5003;51124;53.394;-6.294;2022-10-16T05:53:22;8;8;
64697;PMS5003;51124;53.394;-6.294;2022-10-16T05:55:56;7;6;
64697;PMS5003;51124;53.394;-6.294;2022-10-16T05:58:31;7;6;
64697;PMS5003;51124;53.394;-6.294;2022-10-16T06:00:56;16;11;
64697;PMS5003;51124;53.394;-6.294;2022-10-16T06:03:21;6;6;
64697;PMS5003;51124;53.394;-6.294;2022-10-16T06:05:55;8;8;
64697;PMS5003;51124;53.394;-6.294;2022-10-16T06:08:28;8;7;
64697;PMS5003;51124;53.394;-6.294;2022-10-16T06:11:03;7;7;
64697;PMS5003;51124;53.394;-6.294;2022-10-16T06:13:28;7;7;
64697;PMS5003;51124;53.394;-6.294;2022-10-16T06:16:02;8;8;
64697;PMS5003;51124;53.394;-6.294;2022-10-16T06:18:36;6;6;
64697;PMS5003;51124;53.394;-6.294;2022-10-16T06:21:12;9;8;
64697;PMS5003;51124;53.394;-6.294;2022-10-16T06:23:38;6;5;
64697;PMS5003;51124;53.394;-6.294;2022-10-16T06:26:13;6;6;
64697;PMS5003;51124;53.394;-6.294;2022-10-16T06:28:38;8;8;
64697;PMS5003;51124;53.394;-6.294;2022-10-16T06:31:13;6;5;
64697;PMS5003;51124;53.394;-6.294;2022-10-16T06:33:49;7;6;
64697;PMS5003;51124;53.394;-6.294;2022-10-16T06:36:14;5;5;
64697;PMS5003;51124;53.394;-6.294;2022-10-16T06:38:39;8;7;
64697;PMS5003;51124;53.394;-6.294;2022-10-16T06:41:14;9;6;
64697;PMS5003;51124;53.394;-6.294;2022-10-16T06:43:39;8;6;
64697;PMS5003;51124;53.394;-6.294;2022-10-16T06:46:15;9;6;
64697;PMS5003;51124;53.394;-6.294;2022-10-16T06:48:39;6;6;
64697;PMS5003;51124;53.394;-6.294;2022-10-16T06:51:14;7;7;
64697;PMS5003;51124;53.394;-6.294;2022-10-16T06:53:40;5;5;
64697;PMS5003;51124;53.394;-6.294;2022-10-16T06:56:06;9;8;
64697;PMS5003;51124;53.394;-6.294;2022-10-16T06:58:31;8;6;
64697;PMS5003;51124;53.394;-6.294;2022-10-16T07:01:04;8;7;
64697;PMS5003;51124;53.394;-6.294;2022-10-16T07:03:39;7;7;
64697;PMS5003;51124;53.394;-6.294;2022-10-16T07:06:05;6;6;
64697;PMS5003;51124;53.394;-6.294;2022-10-16T07:08:30;6;6;
64697;PMS5003;51124;53.394;-6.294;2022-10-16T07:11:05;9;6;
64697;PMS5003;51124;53.394;-6.294;2022-10-16T07:13:32;6;6;
64697;PMS5003;51124;53.394;-6.294;2022-10-16T07:15:56;8;6;
64697;PMS5003;51124;53.394;-6.294;2022-10-16T07:18:30;4;4;
64697;PMS5003;51124;53.394;-6.294;2022-10-16T07:21:04;5;5;
64697;PMS5003;51124;53.394;-6.294;2022-10-16T07:23:39;7;6;
64697;PMS5003;51124;53.394;-6.294;2022-10-16T07:26:13;6;6;
64697;PMS5003;51124;53.394;-6.294;2022-10-16T07:28:47;5;4;
64697;PMS5003;51124;53.394;-6.294;2022-10-16T07:31:21;6;6;
64697;PMS5003;51124;53.394;-6.294;2022-10-16T07:33:57;6;6;
64697;PMS5003;51124;53.394;-6.294;2022-10-16T07:36:22;5;5;
64697;PMS5003;51124;53.394;-6.294;2022-10-16T07:38:55;6;4;
64697;PMS5003;51124;53.394;-6.294;2022-10-16T07:41:29;6;4;
64697;PMS5003;51124;53.394;-6.294;2022-10-16T07:44:03;5;5;
64697;PMS5003;51124;53.394;-6.294;2022-10-16T07:46:37;5;5;
64697;PMS5003;51124;53.394;-6.294;2022-10-16T07:49:11;4;4;
64697;PMS5003;51124;53.394;-6.294;2022-10-16T07:51:45;5;5;
64697;PMS5003;51124;53.394;-6.294;2022-10-16T07:54:18;6;5;
64697;PMS5003;51124;53.394;-6.294;2022-10-16T07:56:52;4;4;
64697;PMS5003;51124;53.394;-6.294;2022-10-16T07:59:27;4;4;
64697;PMS5003;51124;53.394;-6.294;2022-10-16T08:02:01;3;3;
64697;PMS5003;51124;53.394;-6.294;2022-10-16T08:04:35;5;3;
64697;PMS5003;51124;53.394;-6.294;2022-10-16T08:07:09;4;4;
64697;PMS5003;51124;53.394;-6.294;2022-10-16T08:09:43;4;4;
64697;PMS5003;51124;53.394;-6.294;2022-10-16T08:12:18;3;3;
64697;PMS5003;51124;53.394;-6.294;2022-10-16T08:14:52;3;3;
64697;PMS5003;51124;53.394;-6.294;2022-10-16T08:17:26;5;4;
64697;PMS5003;51124;53.394;-6.294;2022-10-16T08:20:00;3;3;
64697;PMS5003;51124;53.394;-6.294;2022-10-16T08:22:44;5;3;
64697;PMS5003;51124;53.394;-6.294;2022-10-16T08:25:19;4;3;
64697;PMS5003;51124;53.394;-6.294;2022-10-16T08:27:53;3;2;
64697;PMS5003;51124;53.394;-6.294;2022-10-16T08:30:27;3;3;
64697;PMS5003;51124;53.394;-6.294;2022-10-16T08:33:02;4;4;
64697;PMS5003;51124;53.394;-6.294;2022-10-16T08:35:36;4;4;
64697;PMS5003;51124;53.394;-6.294;2022-10-16T08:38:10;5;4;
64697;PMS5003;51124;53.394;-6.294;2022-10-16T08:40:44;5;4;
64697;PMS5003;51124;53.394;-6.294;2022-10-16T08:43:22;7;4;
64697;PMS5003;51124;53.394;-6.294;2022-10-16T08:45:51;3;3;
64697;PMS5003;51124;53.394;-6.294;2022-10-16T08:48:17;2;2;
64697;PMS5003;51124;53.394;-6.294;2022-10-16T08:50:44;5;3;
64697;PMS5003;51124;53.394;-6.294;2022-10-16T08:53:13;3;2;
64697;PMS5003;51124;53.394;-6.294;2022-10-16T08:55:41;2;2;
64697;PMS5003;51124;53.394;-6.294;2022-10-16T08:58:10;3;3;
64697;PMS5003;51124;53.394;-6.294;2022-10-16T09:00:36;4;2;
64697;PMS5003;51124;53.394;-6.294;2022-10-16T09:03:04;3;3;
64697;PMS5003;51124;53.394;-6.294;2022-10-16T09:05:45;5;3;
64697;PMS5003;51124;53.394;-6.294;2022-10-16T09:08:03;4;4;
64697;PMS5003;51124;53.394;-6.294;2022-10-16T09:10:30;4;3;
64697;PMS5003;51124;53.394;-6.294;2022-10-16T09:13:02;2;2;
64697;PMS5003;51124;53.394;-6.294;2022-10-16T09:15:29;1;1;
64697;PMS5003;51124;53.394;-6.294;2022-10-16T09:18:00;4;3;
64697;PMS5003;51124;53.394;-6.294;2022-10-16T09:20:35;2;2;
64697;PMS5003;51124;53.394;-6.294;2022-10-16T09:23:13;4;4;
64697;PMS5003;51124;53.394;-6.294;2022-10-16T09:25:38;3;3;
64697;PMS5003;51124;53.394;-6.294;2022-10-16T09:28:04;1;1;
64697;PMS5003;51124;53.394;-6.294;2022-10-16T09:30:37;3;3;
64697;PMS5003;51124;53.394;-6.294;2022-10-16T09:33:12;2;2;
64697;PMS5003;51124;53.394;-6.294;2022-10-16T09:35:38;5;3;
64697;PMS5003;51124;53.394;-6.294;2022-10-16T09:38:03;3;3;
64697;PMS5003;51124;53.394;-6.294;2022-10-16T09:40:37;4;4;
64697;PMS5003;51124;53.394;-6.294;2022-10-16T09:43:14;4;4;
64697;PMS5003;51124;53.394;-6.294;2022-10-16T09:45:33;3;3;
64697;PMS5003;51124;53.394;-6.294;2022-10-16T09:48:10;4;4;
64697;PMS5003;51124;53.394;-6.294;2022-10-16T09:50:35;4;1;
64697;PMS5003;51124;53.394;-6.294;2022-10-16T09:53:10;6;5;
64697;PMS5003;51124;53.394;-6.294;2022-10-16T09:55:35;3;3;
64697;PMS5003;51124;53.394;-6.294;2022-10-16T09:58:11;3;3;
64697;PMS5003;51124;53.394;-6.294;2022-10-16T10:00:36;2;2;
64697;PMS5003;51124;53.394;-6.294;2022-10-16T10:03:08;2;2;
64697;PMS5003;51124;53.394;-6.294;2022-10-16T10:05:33;3;3;
64697;PMS5003;51124;53.394;-6.294;2022-10-16T10:08:12;3;3;
64697;PMS5003;51124;53.394;-6.294;2022-10-16T10:10:41;4;3;
64697;PMS5003;51124;53.394;-6.294;2022-10-16T10:13:14;2;2;
64697;PMS5003;51124;53.394;-6.294;2022-10-16T10:15:41;2;2;
64697;PMS5003;51124;53.394;-6.294;2022-10-16T10:18:15;4;4;
64697;PMS5003;51124;53.394;-6.294;2022-10-16T10:20:40;2;2;
64697;PMS5003;51124;53.394;-6.294;2022-10-16T10:23:19;3;3;
64697;PMS5003;51124;53.394;-6.294;2022-10-16T10:25:49;2;2;
64697;PMS5003;51124;53.394;-6.294;2022-10-16T10:28:18;6;4;
64697;PMS5003;51124;53.394;-6.294;2022-10-16T10:30:44;3;3;
64697;PMS5003;51124;53.394;-6.294;2022-10-16T10:33:17;4;4;
64697;PMS5003;51124;53.394;-6.294;2022-10-16T10:35:49;5;4;
64697;PMS5003;51124;53.394;-6.294;2022-10-16T10:38:23;5;3;
64697;PMS5003;51124;53.394;-6.294;2022-10-16T10:40:56;1;1;
64697;PMS5003;51124;53.394;-6.294;2022-10-16T10:43:24;3;3;
64697;PMS5003;51124;53.394;-6.294;2022-10-16T10:45:52;4;4;
64697;PMS5003;51124;53.394;-6.294;2022-10-16T10:48:24;4;3;
64697;PMS5003;51124;53.394;-6.294;2022-10-16T10:50:54;4;2;
64697;PMS5003;51124;53.394;-6.294;2022-10-16T10:53:25;3;1;
64697;PMS5003;51124;53.394;-6.294;2022-10-16T10:56:00;2;2;
64697;PMS5003;51124;53.394;-6.294;2022-10-16T10:58:57;4;4;
64697;PMS5003;51124;53.394;-6.294;2022-10-16T11:01:01;6;4;
64697;PMS5003;51124;53.394;-6.294;2022-10-16T11:03:34;2;2;
64697;PMS5003;51124;53.394;-6.294;2022-10-16T11:06:04;3;3;
64697;PMS5003;51124;53.394;-6.294;2022-10-16T11:08:32;3;3;
64697;PMS5003;51124;53.394;-6.294;2022-10-16T11:11:01;3;3;
64697;PMS5003;51124;53.394;-6.294;2022-10-16T11:13:31;3;3;
64697;PMS5003;51124;53.394;-6.294;2022-10-16T11:16:01;3;3;
64697;PMS5003;51124;53.394;-6.294;2022-10-16T11:18:39;3;3;
64697;PMS5003;51124;53.394;-6.294;2022-10-16T11:21:02;2;2;
64697;PMS5003;51124;53.394;-6.294;2022-10-16T11:23:31;4;2;
64697;PMS5003;51124;53.394;-6.294;2022-10-16T11:26:04;5;3;
64697;PMS5003;51124;53.394;-6.294;2022-10-16T11:28:36;5;2;
64697;PMS5003;51124;53.394;-6.294;2022-10-16T11:31:07;2;1;
64697;PMS5003;51124;53.394;-6.294;2022-10-16T11:33:37;2;2;
64697;PMS5003;51124;53.394;-6.294;2022-10-16T11:36:08;1;1;
64697;PMS5003;51124;53.394;-6.294;2022-10-16T11:38:39;4;3;
64697;PMS5003;51124;53.394;-6.294;2022-10-16T11:41:10;3;2;
64697;PMS5003;51124;53.394;-6.294;2022-10-16T11:43:43;3;3;
64697;PMS5003;51124;53.394;-6.294;2022-10-16T11:46:12;4;3;
64697;PMS5003;51124;53.394;-6.294;2022-10-16T11:48:41;4;3;
64697;PMS5003;51124;53.394;-6.294;2022-10-16T11:51:12;3;3;
64697;PMS5003;51124;53.394;-6.294;2022-10-16T11:53:45;4;4;
64697;PMS5003;51124;53.394;-6.294;2022-10-16T11:56:16;3;3;
64697;PMS5003;51124;53.394;-6.294;2022-10-16T11:58:44;4;4;
64697;PMS5003;51124;53.394;-6.294;2022-10-16T12:01:17;5;3;
64697;PMS5003;51124;53.394;-6.294;2022-10-16T12:03:46;4;3;
64697;PMS5003;51124;53.394;-6.294;2022-10-16T12:06:21;4;3;
64697;PMS5003;51124;53.394;-6.294;2022-10-16T12:08:41;3;3;
64697;PMS5003;51124;53.394;-6.294;2022-10-16T12:11:30;3;3;
64697;PMS5003;51124;53.394;-6.294;2022-10-16T12:13:46;5;4;
64697;PMS5003;51124;53.394;-6.294;2022-10-16T12:16:21;3;3;
64697;PMS5003;51124;53.394;-6.294;2022-10-16T12:18:47;6;3;
64697;PMS5003;51124;53.394;-6.294;2022-10-16T12:21:21;3;2;
64697;PMS5003;51124;53.394;-6.294;2022-10-16T12:23:54;4;2;
64697;PMS5003;51124;53.394;-6.294;2022-10-16T12:26:26;4;3;
64697;PMS5003;51124;53.394;-6.294;2022-10-16T12:28:51;5;2;
64697;PMS5003;51124;53.394;-6.294;2022-10-16T12:31:25;2;2;
64697;PMS5003;51124;53.394;-6.294;2022-10-16T12:33:55;4;2;
64697;PMS5003;51124;53.394;-6.294;2022-10-16T12:36:26;4;3;
64697;PMS5003;51124;53.394;-6.294;2022-10-16T12:38:52;4;2;
64697;PMS5003;51124;53.394;-6.294;2022-10-16T12:41:27;3;3;
64697;PMS5003;51124;53.394;-6.294;2022-10-16T12:43:52;1;1;
64697;PMS5003;51124;53.394;-6.294;2022-10-16T12:46:35;1;1;
64697;PMS5003;51124;53.394;-6.294;2022-10-16T12:49:06;4;3;
64697;PMS5003;51124;53.394;-6.294;2022-10-16T12:51:34;3;3;
64697;PMS5003;51124;53.394;-6.294;2022-10-16T12:53:59;3;3;
64697;PMS5003;51124;53.394;-6.294;2022-10-16T12:56:38;3;3;
64697;PMS5003;51124;53.394;-6.294;2022-10-16T12:59:02;2;2;
64697;PMS5003;51124;53.394;-6.294;2022-10-16T13:01:28;4;3;
64697;PMS5003;51124;53.394;-6.294;2022-10-16T13:04:03;2;2;
64697;PMS5003;51124;53.394;-6.294;2022-10-16T13:06:36;1;1;
64697;PMS5003;51124;53.394;-6.294;2022-10-16T13:09:16;4;2;
64697;PMS5003;51124;53.394;-6.294;2022-10-16T13:11:45;3;3;
64697;PMS5003;51124;53.394;-6.294;2022-10-16T13:14:16;3;3;
64697;PMS5003;51124;53.394;-6.294;2022-10-16T13:16:44;3;3;
64697;PMS5003;51124;53.394;-6.294;2022-10-16T13:19:17;2;2;
64697;PMS5003;51124;53.394;-6.294;2022-10-16T13:21:48;2;2;
64697;PMS5003;51124;53.394;-6.294;2022-10-16T13:24:24;3;3;
64697;PMS5003;51124;53.394;-6.294;2022-10-16T13:26:51;3;1;
64697;PMS5003;51124;53.394;-6.294;2022-10-16T13:29:20;4;4;
64697;PMS5003;51124;53.394;-6.294;2022-10-16T13:31:55;3;2;
64697;PMS5003;51124;53.394;-6.294;2022-10-16T13:34:29;3;3;
64697;PMS5003;51124;53.394;-6.294;2022-10-16T13:37:15;4;3;
64697;PMS5003;51124;53.394;-6.294;2022-10-16T13:39:31;3;3;
64697;PMS5003;51124;53.394;-6.294;2022-10-16T13:42:05;5;5;
64697;PMS5003;51124;53.394;-6.294;2022-10-16T13:44:35;3;1;
64697;PMS5003;51124;53.394;-6.294;2022-10-16T13:47:03;2;0;
64697;PMS5003;51124;53.394;-6.294;2022-10-16T13:49:37;2;2;
64697;PMS5003;51124;53.394;-6.294;2022-10-16T13:52:15;1;1;
64697;PMS5003;51124;53.394;-6.294;2022-10-16T13:54:41;5;3;
64697;PMS5003;51124;53.394;-6.294;2022-10-16T13:57:15;3;3;
64697;PMS5003;51124;53.394;-6.294;2022-10-16T13:59:51;4;2;
64697;PMS5003;51124;53.394;-6.294;2022-10-16T14:02:18;2;2;
64697;PMS5003;51124;53.394;-6.294;2022-10-16T14:04:45;3;1;
64697;PMS5003;51124;53.394;-6.294;2022-10-16T14:07:13;3;2;
64697;PMS5003;51124;53.394;-6.294;2022-10-16T14:09:41;2;2;
64697;PMS5003;51124;53.394;-6.294;2022-10-16T14:12:16;3;1;
64697;PMS5003;51124;53.394;-6.294;2022-10-16T14:14:51;4;4;
64697;PMS5003;51124;53.394;-6.294;2022-10-16T14:17:18;1;1;
64697;PMS5003;51124;53.394;-6.294;2022-10-16T14:19:46;2;2;
64697;PMS5003;51124;53.394;-6.294;2022-10-16T14:22:28;4;2;
64697;PMS5003;51124;53.394;-6.294;2022-10-16T14:24:44;3;1;
64697;PMS5003;51124;53.394;-6.294;2022-10-16T14:27:24;1;1;
64697;PMS5003;51124;53.394;-6.294;2022-10-16T14:30:03;2;1;
64697;PMS5003;51124;53.394;-6.294;2022-10-16T14:32:24;1;1;
64697;PMS5003;51124;53.394;-6.294;2022-10-16T14:34:58;3;1;
64697;PMS5003;51124;53.394;-6.294;2022-10-16T14:37:32;1;1;
64697;PMS5003;51124;53.394;-6.294;2022-10-16T14:40:13;0;0;
64697;PMS5003;51124;53.394;-6.294;2022-10-16T14:42:38;2;2;
64697;PMS5003;51124;53.394;-6.294;2022-10-16T14:45:07;5;2;
64697;PMS5003;51124;53.394;-6.294;2022-10-16T14:47:33;4;2;
64697;PMS5003;51124;53.394;-6.294;2022-10-16T14:50:07;2;2;
64697;PMS5003;51124;53.394;-6.294;2022-10-16T14:52:41;1;1;
64697;PMS5003;51124;53.394;-6.294;2022-10-16T14:55:15;2;2;
64697;PMS5003;51124;53.394;-6.294;2022-10-16T14:57:50;2;2;
64697;PMS5003;51124;53.394;-6.294;2022-10-16T15:00:24;2;2;
64697;PMS5003;51124;53.394;-6.294;2022-10-16T15:02:57;1;1;
64697;PMS5003;51124;53.394;-6.294;2022-10-16T15:05:31;2;2;
64697;PMS5003;51124;53.394;-6.294;2022-10-16T15:08:05;2;2;
64697;PMS5003;51124;53.394;-6.294;2022-10-16T15:10:40;2;2;
64697;PMS5003;51124;53.394;-6.294;2022-10-16T15:13:06;0;0;
64697;PMS5003;51124;53.394;-6.294;2022-10-16T15:15:33;1;1;
64697;PMS5003;51124;53.394;-6.294;2022-10-16T15:17:58;1;1;
64697;PMS5003;51124;53.394;-6.294;2022-10-16T15:20:32;3;3;
64697;PMS5003;51124;53.394;-6.294;2022-10-16T15:22:57;3;2;
64697;PMS5003;51124;53.394;-6.294;2022-10-16T15:25:33;1;1;
64697;PMS5003;51124;53.394;-6.294;2022-10-16T15:27:59;2;0;
64697;PMS5003;51124;53.394;-6.294;2022-10-16T15:30:35;2;2;
64697;PMS5003;51124;53.394;-6.294;2022-10-16T15:33:11;2;1;
64697;PMS5003;51124;53.394;-6.294;2022-10-16T15:35:37;2;2;
64697;PMS5003;51124;53.394;-6.294;2022-10-16T15:38:11;3;3;
64697;PMS5003;51124;53.394;-6.294;2022-10-16T15:40:35;1;1;
64697;PMS5003;51124;53.394;-6.294;2022-10-16T15:43:09;2;2;
64697;PMS5003;51124;53.394;-6.294;2022-10-16T15:45:43;2;2;
64697;PMS5003;51124;53.394;-6.294;2022-10-16T15:48:16;1;1;
64697;PMS5003;51124;53.394;-6.294;2022-10-16T15:50:50;1;1;
64697;PMS5003;51124;53.394;-6.294;2022-10-16T15:53:24;2;2;
64697;PMS5003;51124;53.394;-6.294;2022-10-16T15:55:58;2;2;
64697;PMS5003;51124;53.394;-6.294;2022-10-16T15:58:24;2;2;
64697;PMS5003;51124;53.394;-6.294;2022-10-16T16:00:58;2;2;
64697;PMS5003;51124;53.394;-6.294;2022-10-16T16:03:23;2;2;
64697;PMS5003;51124;53.394;-6.294;2022-10-16T16:05:57;7;3;
64697;PMS5003;51124;53.394;-6.294;2022-10-16T16:08:32;2;2;
64697;PMS5003;51124;53.394;-6.294;2022-10-16T16:10:57;1;1;
64697;PMS5003;51124;53.394;-6.294;2022-10-16T16:13:31;0;0;
64697;PMS5003;51124;53.394;-6.294;2022-10-16T16:16:06;5;2;
64697;PMS5003;51124;53.394;-6.294;2022-10-16T16:18:41;1;1;
64697;PMS5003;51124;53.394;-6.294;2022-10-16T16:21:15;1;1;
64697;PMS5003;51124;53.394;-6.294;2022-10-16T16:23:49;4;3;
64697;PMS5003;51124;53.394;-6.294;2022-10-16T16:26:24;5;5;
64697;PMS5003;51124;53.394;-6.294;2022-10-16T16:28:49;3;3;
64697;PMS5003;51124;53.394;-6.294;2022-10-16T16:31:23;6;3;
64697;PMS5003;51124;53.394;-6.294;2022-10-16T16:33:49;3;3;
64697;PMS5003;51124;53.394;-6.294;2022-10-16T16:36:23;15;11;
64697;PMS5003;51124;53.394;-6.294;2022-10-16T16:38:58;18;11;
64697;PMS5003;51124;53.394;-6.294;2022-10-16T16:41:32;14;10;
64697;PMS5003;51124;53.394;-6.294;2022-10-16T16:44:08;14;12;
64697;PMS5003;51124;53.394;-6.294;2022-10-16T16:46:33;16;13;
64697;PMS5003;51124;53.394;-6.294;2022-10-16T16:49:09;18;13;
64697;PMS5003;51124;53.394;-6.294;2022-10-16T16:51:34;15;12;
64697;PMS5003;51124;53.394;-6.294;2022-10-16T16:54:09;22;13;